createdAt,value
2019-05-23T00:00:54.160Z,79.34
2019-05-23T00:03:25.469Z,79.07
2019-05-23T00:06:00.030Z,79.49
2019-05-23T00:08:32.195Z,79.58
2019-05-23T00:11:04.411Z,79.90
2019-05-23T00:13:44.045Z,79.99
2019-05-23T00:16:15.858Z,80.17
2019-05-23T00:18:47.016Z,80.53
2019-05-23T00:21:17.860Z,81.01
2019-05-23T00:23:47.437Z,81.51
2019-05-23T00:26:17.019Z,81.15
2019-05-23T00:28:48.161Z,81.12
2019-05-23T00:31:25.991Z,81.33
2019-05-23T00:33:56.643Z,81.50
2019-05-23T00:36:26.449Z,81.71
2019-05-23T00:38:56.732Z,81.50
2019-05-23T00:41:26.146Z,81.39
2019-05-23T00:43:56.226Z,81.41
2019-05-23T00:46:26.303Z,81.14
2019-05-23T00:48:56.936Z,80.96
2019-05-23T00:51:27.038Z,80.88
2019-05-23T00:53:56.930Z,80.96
2019-05-23T00:56:26.706Z,80.79
2019-05-23T00:58:56.219Z,80.60
2019-05-23T01:01:28.105Z,80.81
2019-05-23T01:03:59.462Z,80.50
2019-05-23T01:06:29.778Z,80.50
2019-05-23T01:08:59.806Z,80.63
2019-05-23T01:11:29.232Z,80.69
2019-05-23T01:13:59.450Z,80.84
2019-05-23T01:16:30.680Z,80.88
2019-05-23T01:19:00.399Z,81.16
2019-05-23T01:21:48.343Z,81.51
2019-05-23T01:24:19.621Z,81.63
2019-05-23T01:26:49.534Z,81.58
2019-05-23T01:29:20.969Z,81.68
2019-05-23T01:31:52.216Z,81.57
2019-05-23T01:34:22.265Z,81.77
2019-05-23T01:36:51.709Z,81.99
2019-05-23T01:39:21.528Z,81.67
2019-05-23T01:41:51.171Z,81.96
2019-05-23T01:44:21.539Z,82.17
2019-05-23T01:46:51.397Z,82.42
2019-05-23T01:49:22.261Z,82.60
2019-05-23T01:51:51.809Z,82.51
2019-05-23T01:54:22.197Z,82.48
2019-05-23T01:56:52.315Z,82.62
2019-05-23T01:59:21.828Z,82.62
2019-05-23T02:01:51.959Z,82.54
2019-05-23T02:04:22.481Z,82.90
2019-05-23T02:06:52.746Z,83.30
2019-05-23T02:09:22.198Z,83.44
2019-05-23T02:11:52.390Z,83.68
2019-05-23T02:14:22.078Z,83.71
2019-05-23T02:16:53.338Z,83.61
2019-05-23T02:19:23.495Z,83.95
2019-05-23T02:21:55.683Z,84.38
2019-05-23T02:24:26.073Z,84.34
2019-05-23T02:26:55.860Z,84.54
2019-05-23T02:29:26.063Z,85.03
2019-05-23T02:31:55.879Z,84.62
2019-05-23T02:34:25.656Z,84.44
2019-05-23T02:36:57.792Z,84.39
2019-05-23T02:39:45.520Z,84.16
2019-05-23T02:42:28.596Z,84.41
2019-05-23T02:44:58.191Z,84.65
2019-05-23T02:47:39.062Z,84.77
2019-05-23T02:50:13.345Z,84.91
2019-05-23T02:52:51.944Z,85.01
2019-05-23T02:55:30.632Z,84.74
2019-05-23T02:58:03.368Z,84.66
2019-05-23T03:00:53.239Z,84.66
2019-05-23T03:03:10.142Z,84.81
2019-05-23T03:05:40.184Z,85.22
2019-05-23T03:08:10.296Z,85.38
2019-05-23T03:11:01.977Z,85.59
2019-05-23T03:13:33.669Z,85.85
2019-05-23T03:16:04.190Z,86.17
2019-05-23T03:18:37.964Z,86.35
2019-05-23T03:21:09.075Z,86.39
2019-05-23T03:23:38.629Z,86.03
2019-05-23T03:26:34.813Z,86.52
2019-05-23T03:29:04.932Z,86.60
2019-05-23T03:31:37.598Z,86.78
2019-05-23T03:34:09.751Z,86.77
2019-05-23T03:36:39.637Z,86.86
2019-05-23T03:39:11.862Z,87.00
2019-05-23T03:41:41.439Z,87.13
2019-05-23T03:44:11.736Z,87.09
2019-05-23T03:46:43.094Z,87.03
2019-05-23T03:49:14.550Z,87.04
2019-05-23T03:51:44.976Z,87.11
2019-05-23T03:54:15.408Z,87.04
2019-05-23T03:56:44.910Z,87.11
2019-05-23T03:59:15.627Z,87.01
2019-05-23T04:01:49.047Z,86.64
2019-05-23T04:04:19.164Z,86.19
2019-05-23T04:06:49.972Z,85.98
2019-05-23T04:09:19.526Z,85.54
2019-05-23T04:11:49.763Z,85.22
2019-05-23T04:14:19.451Z,84.73
2019-05-23T04:16:49.230Z,84.45
2019-05-23T04:19:18.687Z,84.14
2019-05-23T04:21:48.451Z,83.85
2019-05-23T04:24:18.132Z,83.58
2019-05-23T04:26:47.886Z,83.28
2019-05-23T04:29:17.476Z,83.15
2019-05-23T04:32:03.829Z,82.87
2019-05-23T04:34:19.657Z,82.53
2019-05-23T04:36:49.395Z,82.22
2019-05-23T04:39:19.205Z,82.27
2019-05-23T04:41:48.739Z,81.87
2019-05-23T04:44:18.496Z,81.73
2019-05-23T04:46:47.981Z,81.51
2019-05-23T04:49:17.526Z,81.42
2019-05-23T04:51:47.298Z,81.26
2019-05-23T04:54:16.748Z,80.93
2019-05-23T04:56:46.444Z,80.66
2019-05-23T04:59:16.043Z,80.37
2019-05-23T05:01:45.851Z,80.13
2019-05-23T05:04:15.663Z,79.84
2019-05-23T05:06:45.500Z,79.50
2019-05-23T05:09:16.586Z,78.71
2019-05-23T05:11:46.386Z,78.18
2019-05-23T05:14:15.982Z,78.06
2019-05-23T05:16:45.527Z,77.57
2019-05-23T05:19:15.299Z,77.45
2019-05-23T05:21:44.773Z,76.91
2019-05-23T05:24:15.707Z,77.17
2019-05-23T05:26:45.236Z,77.04
2019-05-23T05:29:14.827Z,76.36
2019-05-23T05:31:44.662Z,76.38
2019-05-23T05:34:14.492Z,76.04
2019-05-23T05:36:44.009Z,75.95
2019-05-23T05:39:13.880Z,76.04
2019-05-23T05:41:43.677Z,75.02
2019-05-23T05:44:14.175Z,74.59
2019-05-23T05:46:44.059Z,73.63
2019-05-23T05:49:14.191Z,72.74
2019-05-23T05:51:43.810Z,71.71
2019-05-23T05:54:13.511Z,72.32
2019-05-23T05:56:43.499Z,71.01
2019-05-23T05:59:13.898Z,71.47
2019-05-23T06:01:43.765Z,70.55
2019-05-23T06:04:14.304Z,69.44
2019-05-23T06:06:45.526Z,69.68
2019-05-23T06:09:26.027Z,68.57
2019-05-23T06:11:55.830Z,67.61
2019-05-23T06:14:25.608Z,68.08
2019-05-23T06:16:56.473Z,67.96
2019-05-23T06:19:26.259Z,67.27
2019-05-23T06:21:55.792Z,67.27
2019-05-23T06:24:41.715Z,66.41
2019-05-23T06:26:56.940Z,65.01
2019-05-23T06:29:28.010Z,65.16
2019-05-23T06:31:57.540Z,64.12
2019-05-23T06:34:27.124Z,64.19
2019-05-23T06:36:56.740Z,64.32
2019-05-23T06:39:26.169Z,64.25
2019-05-23T06:41:56.027Z,64.06
2019-05-23T06:44:26.186Z,63.01
2019-05-23T06:46:57.170Z,61.96
2019-05-23T06:49:27.524Z,59.53
2019-05-23T06:51:57.629Z,60.33
2019-05-23T06:54:27.317Z,59.57
2019-05-23T06:56:58.382Z,60.34
2019-05-23T06:59:28.367Z,58.73
2019-05-23T07:01:58.263Z,57.95
2019-05-23T07:04:28.235Z,57.52
2019-05-23T07:06:57.810Z,57.46
2019-05-23T07:09:27.388Z,57.49
2019-05-23T07:11:59.250Z,56.35
2019-05-23T07:14:30.719Z,55.48
2019-05-23T07:17:00.517Z,56.65
2019-05-23T07:19:30.735Z,54.43
2019-05-23T07:22:00.247Z,55.39
2019-05-23T07:24:30.044Z,55.06
2019-05-23T07:27:01.389Z,53.91
2019-05-23T07:29:30.922Z,51.06
2019-05-23T07:32:01.563Z,51.53
2019-05-23T07:34:33.191Z,49.11
2019-05-23T07:37:03.065Z,49.55
2019-05-23T07:39:32.498Z,50.29
2019-05-23T07:42:02.070Z,48.35
2019-05-23T07:44:45.934Z,47.26
2019-05-23T07:47:04.340Z,48.41
2019-05-23T07:49:33.890Z,48.57
2019-05-23T07:52:03.662Z,48.42
2019-05-23T07:54:35.487Z,48.11
2019-05-23T07:57:08.174Z,46.19
2019-05-23T07:59:37.625Z,46.96
2019-05-23T08:02:15.120Z,47.41
2019-05-23T08:04:46.033Z,45.98
2019-05-23T08:07:16.571Z,45.88
2019-05-23T08:09:45.448Z,45.98
2019-05-23T08:12:15.676Z,45.36
2019-05-23T08:14:45.185Z,45.54
2019-05-23T08:17:16.998Z,44.98
2019-05-23T08:19:50.187Z,44.93
2019-05-23T08:22:18.327Z,44.09
2019-05-23T08:24:51.336Z,43.57
2019-05-23T08:27:22.664Z,45.01
2019-05-23T08:29:55.706Z,43.84
2019-05-23T08:32:25.269Z,43.59
2019-05-23T08:34:55.374Z,42.42
2019-05-23T08:37:25.282Z,42.51
2019-05-23T08:39:54.766Z,43.16
2019-05-23T08:42:25.623Z,42.95
2019-05-23T08:44:55.615Z,42.83
2019-05-23T08:47:27.892Z,43.28
2019-05-23T08:49:59.728Z,43.41
2019-05-23T08:52:29.622Z,42.44
2019-05-23T08:55:02.189Z,42.07
2019-05-23T08:57:32.295Z,42.53
2019-05-23T09:00:02.061Z,42.73
2019-05-23T09:02:34.141Z,41.88
2019-05-23T09:05:08.322Z,42.30
2019-05-23T09:07:37.747Z,41.49
2019-05-23T09:10:08.251Z,42.35
2019-05-23T09:12:37.842Z,41.48
2019-05-23T09:15:09.928Z,39.75
2019-05-23T09:17:52.272Z,41.46
2019-05-23T09:20:12.998Z,39.86
2019-05-23T09:22:43.063Z,40.91
2019-05-23T09:25:13.707Z,39.16
2019-05-23T09:27:43.302Z,40.41
2019-05-23T09:30:17.164Z,40.51
2019-05-23T09:32:46.788Z,39.16
2019-05-23T09:35:21.932Z,39.87
2019-05-23T09:37:48.511Z,40.93
2019-05-23T09:40:18.564Z,38.42
2019-05-23T09:42:48.167Z,38.15
2019-05-23T09:45:18.804Z,39.18
2019-05-23T09:47:51.279Z,38.97
2019-05-23T09:50:21.961Z,38.97
2019-05-23T09:52:51.479Z,38.48
2019-05-23T09:55:21.639Z,38.48
2019-05-23T09:57:51.236Z,38.04
2019-05-23T10:00:22.596Z,38.13
2019-05-23T10:02:52.280Z,37.90
2019-05-23T10:05:40.917Z,37.84
2019-05-23T10:07:53.272Z,38.53
2019-05-23T10:10:23.160Z,37.78
2019-05-23T10:12:52.611Z,37.65
2019-05-23T10:15:39.675Z,37.12
2019-05-23T10:18:10.786Z,37.34
2019-05-23T10:20:40.657Z,37.34
2019-05-23T10:23:10.171Z,37.99
2019-05-23T10:25:39.686Z,37.11
2019-05-23T10:28:09.475Z,35.89
2019-05-23T10:30:39.465Z,37.94
2019-05-23T10:33:12.039Z,35.37
2019-05-23T10:35:59.146Z,36.08
2019-05-23T10:38:13.793Z,36.13
2019-05-23T10:40:43.690Z,35.86
2019-05-23T10:43:13.257Z,36.91
2019-05-23T10:45:42.854Z,37.72
2019-05-23T10:48:13.977Z,38.38
2019-05-23T10:50:45.103Z,38.51
2019-05-23T10:53:16.062Z,38.14
2019-05-23T10:55:45.674Z,38.71
2019-05-23T10:58:16.271Z,36.67
2019-05-23T11:00:45.979Z,36.62
2019-05-23T11:03:16.047Z,35.46
2019-05-23T11:05:45.811Z,36.31
2019-05-23T11:08:15.708Z,35.88
2019-05-23T11:10:45.657Z,37.93
2019-05-23T11:13:15.121Z,36.64
2019-05-23T11:15:44.602Z,37.94
2019-05-23T11:18:14.521Z,37.09
2019-05-23T11:20:44.247Z,37.53
2019-05-23T11:23:15.522Z,37.64
2019-05-23T11:25:45.205Z,35.64
2019-05-23T11:28:14.941Z,34.52
2019-05-23T11:30:57.942Z,35.75
2019-05-23T11:33:27.675Z,35.81
2019-05-23T11:35:58.259Z,34.48
2019-05-23T11:38:28.578Z,36.04
2019-05-23T11:40:58.102Z,34.96
2019-05-23T11:43:28.339Z,34.07
2019-05-23T11:45:59.591Z,34.81
2019-05-23T11:48:29.600Z,34.48
2019-05-23T11:50:59.184Z,36.44
2019-05-23T11:53:29.533Z,35.21
2019-05-23T11:55:59.087Z,35.52
2019-05-23T11:58:32.354Z,35.36
2019-05-23T12:01:10.150Z,35.74
2019-05-23T12:03:40.110Z,35.14
2019-05-23T12:06:09.609Z,33.38
2019-05-23T12:08:39.619Z,33.13
2019-05-23T12:11:09.113Z,33.70
2019-05-23T12:13:38.619Z,33.87
2019-05-23T12:16:08.305Z,33.16
2019-05-23T12:18:37.855Z,32.73
2019-05-23T12:21:07.512Z,30.89
2019-05-23T12:23:38.714Z,32.97
2019-05-23T12:26:08.233Z,30.68
2019-05-23T12:28:37.743Z,32.07
2019-05-23T12:31:07.906Z,32.31
2019-05-23T12:33:37.752Z,32.12
2019-05-23T12:36:07.195Z,33.56
2019-05-23T12:38:36.641Z,31.24
2019-05-23T12:41:07.931Z,31.98
2019-05-23T12:46:06.004Z,31.03
2019-05-23T12:48:43.177Z,31.89
2019-05-23T12:51:14.514Z,31.88
2019-05-23T12:53:44.013Z,32.32
2019-05-23T12:56:13.741Z,31.46
2019-05-23T12:58:43.686Z,31.59
2019-05-23T13:01:15.337Z,31.95
2019-05-23T13:03:45.195Z,32.71
2019-05-23T13:06:15.076Z,32.72
2019-05-23T13:08:44.490Z,32.09
2019-05-23T13:11:14.648Z,33.07
2019-05-23T13:13:44.154Z,30.06
2019-05-23T13:16:13.809Z,30.69
2019-05-23T13:18:43.351Z,28.90
2019-05-23T13:21:13.409Z,29.30
2019-05-23T13:23:43.083Z,28.88
2019-05-23T13:26:12.738Z,29.03
2019-05-23T13:28:42.226Z,28.53
2019-05-23T13:31:11.678Z,29.06
2019-05-23T13:33:43.507Z,28.65
2019-05-23T13:36:12.944Z,29.58
2019-05-23T13:38:42.464Z,31.12
2019-05-23T13:41:11.923Z,29.72
2019-05-23T13:43:41.348Z,30.05
2019-05-23T13:46:11.225Z,30.85
2019-05-23T13:48:40.831Z,31.13
2019-05-23T13:51:10.439Z,31.97
2019-05-23T13:53:40.129Z,31.45
2019-05-23T13:56:09.760Z,31.83
2019-05-23T13:58:39.585Z,33.26
2019-05-23T14:01:10.197Z,31.47
2019-05-23T14:03:40.058Z,33.28
2019-05-23T14:06:09.921Z,38.09
2019-05-23T14:08:39.438Z,37.24
2019-05-23T14:11:09.046Z,37.93
2019-05-23T14:13:38.815Z,36.17
2019-05-23T14:16:09.143Z,40.93
2019-05-23T14:18:38.764Z,40.88
2019-05-23T14:21:08.367Z,40.15
2019-05-23T14:23:37.842Z,40.45
2019-05-23T14:26:08.290Z,40.34
2019-05-23T14:28:37.727Z,40.81
2019-05-23T14:31:14.965Z,37.63
2019-05-23T14:33:46.106Z,38.41
2019-05-23T14:36:23.628Z,38.02
2019-05-23T14:38:54.683Z,38.69
2019-05-23T14:41:24.474Z,37.63
2019-05-23T14:43:54.310Z,39.76
2019-05-23T14:46:25.661Z,39.82
2019-05-23T14:49:02.636Z,40.61
2019-05-23T14:51:39.896Z,40.99
2019-05-23T14:54:23.497Z,39.76
2019-05-23T14:56:53.331Z,41.13
2019-05-23T14:59:23.440Z,42.64
2019-05-23T15:01:53.423Z,42.65
2019-05-23T15:04:23.390Z,42.79
2019-05-23T15:06:54.444Z,42.85
2019-05-23T15:09:24.535Z,42.60
2019-05-23T15:11:56.251Z,41.70
2019-05-23T15:14:25.785Z,41.57
2019-05-23T15:16:55.302Z,41.00
2019-05-23T15:19:39.118Z,41.58
2019-05-23T15:21:57.373Z,43.17
2019-05-23T15:24:27.254Z,41.52
2019-05-23T15:26:56.734Z,41.92
2019-05-23T15:29:29.288Z,39.85
2019-05-23T15:32:02.367Z,42.11
2019-05-23T15:34:29.117Z,41.71
2019-05-23T15:37:00.313Z,42.28
2019-05-23T15:39:30.107Z,42.55
2019-05-23T15:41:59.801Z,42.26
2019-05-23T15:44:30.427Z,41.68
2019-05-23T15:47:01.131Z,41.24
2019-05-23T15:49:31.537Z,42.02
2019-05-23T15:52:18.875Z,40.59
2019-05-23T15:54:55.696Z,40.54
2019-05-23T15:57:26.789Z,41.51
2019-05-23T15:59:59.452Z,41.95
2019-05-23T16:02:30.742Z,43.14
2019-05-23T16:05:00.589Z,42.11
2019-05-23T16:07:32.454Z,39.11
2019-05-23T16:10:02.167Z,38.86
2019-05-23T16:12:32.067Z,38.61
2019-05-23T16:15:01.964Z,40.00
2019-05-23T16:17:31.999Z,39.48
2019-05-23T16:20:01.589Z,40.06
2019-05-23T16:22:31.266Z,40.80
2019-05-23T16:25:00.828Z,41.37
2019-05-23T16:27:30.580Z,40.19
2019-05-23T16:30:00.075Z,41.15
2019-05-23T16:32:29.517Z,41.15
2019-05-23T16:34:59.121Z,41.05
2019-05-23T16:37:28.728Z,42.53
2019-05-23T16:39:58.175Z,43.64
2019-05-23T16:42:27.821Z,42.73
2019-05-23T16:44:57.337Z,42.79
2019-05-23T16:47:27.144Z,43.91
2019-05-23T16:49:56.565Z,44.13
2019-05-23T16:52:26.077Z,45.10
2019-05-23T16:54:57.142Z,44.62
2019-05-23T16:57:31.678Z,45.43
2019-05-23T17:00:15.093Z,45.43
2019-05-23T17:03:02.497Z,44.14
2019-05-23T17:05:38.040Z,44.69
2019-05-23T17:08:09.202Z,43.49
2019-05-23T17:10:46.272Z,43.96
2019-05-23T17:13:17.427Z,43.96
2019-05-23T17:15:51.339Z,44.23
2019-05-23T17:18:35.370Z,44.49
2019-05-23T17:21:09.551Z,44.49
2019-05-23T17:23:43.714Z,44.91
2019-05-23T17:26:21.120Z,44.46
2019-05-23T17:28:55.477Z,42.88
2019-05-23T17:31:36.261Z,43.62
2019-05-23T17:34:05.951Z,42.69
2019-05-23T17:36:35.501Z,41.62
2019-05-23T17:39:09.410Z,40.96
2019-05-23T17:41:38.929Z,42.69
2019-05-23T17:44:08.516Z,42.35
2019-05-23T17:46:38.404Z,43.12
2019-05-23T17:49:07.912Z,42.18
2019-05-23T17:51:37.342Z,42.08
2019-05-23T17:54:06.933Z,41.84
2019-05-23T17:56:36.447Z,44.72
2019-05-23T17:59:06.072Z,44.72
2019-05-23T18:01:35.686Z,44.50
2019-05-23T18:04:06.665Z,44.77
2019-05-23T18:06:37.030Z,45.92
2019-05-23T18:09:08.464Z,46.37
2019-05-23T18:11:38.026Z,46.37
2019-05-23T18:14:07.793Z,46.51
2019-05-23T18:16:37.384Z,46.76
2019-05-23T18:19:07.744Z,46.92
2019-05-23T18:21:37.648Z,46.92
2019-05-23T18:24:09.095Z,50.70
2019-05-23T18:26:38.829Z,52.17
2019-05-23T18:29:08.545Z,52.17
2019-05-23T18:31:39.690Z,52.74
2019-05-23T18:34:09.522Z,53.76
2019-05-23T18:36:39.614Z,53.28
2019-05-23T18:39:11.433Z,53.73
2019-05-23T18:41:40.980Z,54.74
2019-05-23T18:44:11.268Z,55.89
2019-05-23T18:46:45.092Z,56.45
2019-05-23T18:49:15.165Z,56.21
2019-05-23T18:51:44.775Z,56.59
2019-05-23T18:54:14.684Z,56.80
2019-05-23T18:56:44.276Z,57.02
2019-05-23T18:59:14.097Z,57.91
2019-05-23T19:01:43.597Z,58.01
2019-05-23T19:04:13.387Z,58.26
2019-05-23T19:06:43.579Z,57.66
2019-05-23T19:09:14.303Z,56.67
2019-05-23T19:11:43.893Z,57.57
2019-05-23T19:14:13.445Z,58.98
2019-05-23T19:16:43.351Z,59.35
2019-05-23T19:19:12.968Z,59.72
2019-05-23T19:21:42.843Z,59.76
2019-05-23T19:24:12.362Z,59.72
2019-05-23T19:26:42.125Z,60.27
2019-05-23T19:29:12.908Z,61.30
2019-05-23T19:31:42.638Z,60.83
2019-05-23T19:34:12.403Z,61.64
2019-05-23T19:36:42.131Z,61.90
2019-05-23T19:39:13.193Z,61.90
2019-05-23T19:41:42.749Z,62.77
2019-05-23T19:44:12.458Z,63.62
2019-05-23T19:46:42.008Z,64.37
2019-05-23T19:49:12.982Z,65.05
2019-05-23T19:51:42.476Z,65.27
2019-05-23T19:54:12.212Z,65.22
2019-05-23T19:56:41.778Z,65.71
2019-05-23T19:59:11.288Z,65.39
2019-05-23T20:01:58.959Z,66.14
2019-05-23T20:04:31.451Z,65.58
2019-05-23T20:07:01.314Z,68.11
2019-05-23T20:09:30.878Z,68.35
2019-05-23T20:12:00.360Z,68.34
2019-05-23T20:14:30.161Z,69.57
2019-05-23T20:16:59.569Z,70.02
2019-05-23T20:19:30.022Z,69.90
2019-05-23T20:21:59.502Z,70.51
2019-05-23T20:24:29.080Z,70.77
2019-05-23T20:26:58.793Z,70.76
2019-05-23T20:29:29.930Z,71.29
2019-05-23T20:31:59.535Z,71.42
2019-05-23T20:34:29.616Z,71.19
2019-05-23T20:36:59.134Z,72.31
2019-05-23T20:39:29.029Z,72.18
2019-05-23T20:42:10.768Z,71.88
2019-05-23T20:44:29.682Z,72.24
2019-05-23T20:46:59.313Z,72.59
2019-05-23T20:49:28.731Z,72.17
2019-05-23T20:51:58.453Z,72.33
2019-05-23T20:54:28.537Z,72.66
2019-05-23T20:56:58.066Z,72.05
2019-05-23T20:59:27.480Z,72.66
2019-05-23T21:01:57.107Z,72.76
2019-05-23T21:04:26.520Z,72.75
2019-05-23T21:06:55.960Z,72.63
2019-05-23T21:09:26.925Z,72.97
2019-05-23T21:11:56.384Z,73.20
2019-05-23T21:14:26.038Z,73.50
2019-05-23T21:16:55.571Z,73.22
2019-05-23T21:19:25.012Z,73.30
2019-05-23T21:21:54.530Z,73.82
2019-05-23T21:24:23.944Z,74.62
2019-05-23T21:26:53.403Z,74.23
2019-05-23T21:29:22.868Z,74.38
2019-05-23T21:31:52.325Z,74.41
2019-05-23T21:34:22.450Z,74.65
2019-05-23T21:36:52.050Z,74.56
2019-05-23T21:39:21.736Z,74.74
2019-05-23T21:41:51.326Z,74.83
2019-05-23T21:44:20.885Z,75.13
2019-05-23T21:46:50.740Z,75.30
2019-05-23T21:49:20.166Z,75.38
2019-05-23T21:51:51.708Z,75.74
2019-05-23T21:54:20.797Z,76.05
2019-05-23T21:56:50.328Z,77.44
2019-05-23T21:59:19.750Z,77.96
2019-05-23T22:02:05.997Z,78.25
2019-05-23T22:04:37.175Z,78.54
2019-05-23T22:07:07.030Z,78.41
2019-05-23T22:09:36.695Z,79.70
2019-05-23T22:12:06.694Z,79.47
2019-05-23T22:14:36.616Z,79.42
2019-05-23T22:17:06.073Z,79.16
2019-05-23T22:19:36.170Z,79.15
2019-05-23T22:22:07.296Z,79.03
2019-05-23T22:24:39.564Z,79.04
2019-05-23T22:27:09.966Z,79.26
2019-05-23T22:29:41.056Z,79.02
2019-05-23T22:32:12.164Z,78.73
2019-05-23T22:34:46.322Z,78.66
2019-05-23T22:37:17.424Z,78.50
2019-05-23T22:39:46.973Z,78.29
2019-05-23T22:42:16.866Z,78.87
2019-05-23T22:44:46.320Z,78.81
2019-05-23T22:47:16.272Z,79.13
2019-05-23T22:49:47.290Z,79.52
2019-05-23T22:52:16.932Z,79.42
2019-05-23T22:54:46.391Z,79.92
2019-05-23T22:57:15.923Z,79.64
2019-05-23T22:59:45.542Z,79.85
2019-05-23T23:02:16.812Z,79.93
2019-05-23T23:04:46.323Z,79.94
2019-05-23T23:07:15.929Z,81.49
2019-05-23T23:09:45.821Z,80.90
2019-05-23T23:12:15.386Z,80.65
2019-05-23T23:14:44.893Z,80.79
2019-05-23T23:17:14.607Z,80.91
2019-05-23T23:19:44.042Z,80.89
2019-05-23T23:22:13.946Z,80.50
2019-05-23T23:24:43.476Z,80.48
2019-05-23T23:27:13.057Z,81.95
2019-05-23T23:29:44.005Z,82.63
2019-05-23T23:32:15.384Z,82.46
2019-05-23T23:34:44.887Z,82.07
2019-05-23T23:37:14.445Z,82.99
2019-05-23T23:39:43.926Z,82.88
2019-05-23T23:42:13.485Z,82.86
2019-05-23T23:44:42.219Z,82.99
2019-05-23T23:47:29.341Z,83.29
2019-05-23T23:50:17.457Z,83.33
2019-05-23T23:53:04.572Z,83.81
2019-05-23T23:55:51.923Z,84.28
2019-05-23T23:58:20.626Z,84.17
